createdAt,value
2022-11-17T15:53:02.377Z,7.67
2022-11-17T15:55:15.817Z,7.17
2022-11-17T15:57:45.187Z,8.08
2022-11-17T16:00:15.501Z,7.42
2022-11-17T16:02:44.675Z,8.15
2022-11-17T16:05:13.862Z,8.15
2022-11-17T16:10:14.395Z,6.95
2022-11-17T16:16:10.447Z,6.70
2022-11-17T16:18:43.564Z,7.37
2022-11-17T16:21:13.449Z,6.80
2022-11-17T16:23:45.489Z,6.62
2022-11-17T16:26:15.541Z,6.97
2022-11-17T16:28:44.929Z,7.58
2022-11-17T16:31:22.620Z,7.12
2022-11-17T16:33:53.174Z,7.25
2022-11-17T16:36:24.086Z,7.50
2022-11-17T16:39:01.225Z,6.92
2022-11-17T16:41:34.154Z,5.53
2022-11-17T16:44:10.651Z,7.22
2022-11-17T16:46:41.303Z,6.97
2022-11-17T16:49:12.075Z,7.22
2022-11-17T16:51:40.685Z,8.48
2022-11-17T16:54:11.817Z,8.75
2022-11-17T16:56:40.592Z,7.70
2022-11-17T16:59:11.263Z,7.33
2022-11-17T17:01:40.167Z,6.87
2022-11-17T17:04:09.951Z,6.30
2022-11-17T17:06:43.314Z,6.08
2022-11-17T17:09:15.462Z,6.70
2022-11-17T17:11:47.165Z,7.60
2022-11-17T17:14:16.717Z,7.15
2022-11-17T17:16:45.972Z,6.50
2022-11-17T17:19:16.206Z,5.92
2022-11-17T17:21:46.048Z,6.47
2022-11-17T17:24:15.110Z,6.90
2022-11-17T17:26:44.343Z,6.42
2022-11-17T17:29:14.045Z,6.53
2022-11-17T17:31:43.131Z,6.87
2022-11-17T17:34:13.833Z,6.50
2022-11-17T17:36:42.527Z,5.90
2022-11-17T17:39:15.589Z,6.10
2022-11-17T17:41:45.641Z,5.87
2022-11-17T17:44:18.248Z,5.62
2022-11-17T17:46:47.123Z,6.40
2022-11-17T17:49:18.403Z,7.75
2022-11-17T17:51:48.072Z,6.00
2022-11-17T17:54:19.605Z,5.90
2022-11-17T17:56:48.627Z,5.53
2022-11-17T17:59:17.636Z,5.12
2022-11-17T18:01:48.002Z,6.17
2022-11-17T18:04:17.568Z,6.08
2022-11-17T18:06:48.798Z,5.87
2022-11-17T18:09:20.430Z,5.60
2022-11-17T18:11:50.721Z,5.95
2022-11-17T18:14:23.828Z,6.00
2022-11-17T18:16:53.490Z,5.45
2022-11-17T18:19:24.783Z,5.58
2022-11-17T18:21:53.220Z,5.62
2022-11-17T18:24:23.067Z,6.05
2022-11-17T18:26:52.490Z,5.17
2022-11-17T18:29:22.074Z,5.28
2022-11-17T18:31:51.381Z,5.65
2022-11-17T18:34:23.180Z,6.00
2022-11-17T18:36:55.472Z,6.28
2022-11-17T18:39:25.294Z,5.62
2022-11-17T18:41:54.482Z,5.67
2022-11-17T18:44:23.246Z,5.47
2022-11-17T18:46:52.114Z,5.87
2022-11-17T18:49:21.322Z,5.78
2022-11-17T18:51:50.808Z,6.55
2022-11-17T18:54:20.697Z,6.08
2022-11-17T18:56:50.363Z,6.42
2022-11-17T18:59:20.100Z,6.50
2022-11-17T19:01:49.931Z,5.50
2022-11-17T19:04:18.998Z,5.58
2022-11-17T19:06:47.756Z,5.60
2022-11-17T19:09:17.986Z,6.05
2022-11-17T19:12:05.624Z,6.25
2022-11-17T19:14:40.145Z,5.35
2022-11-17T19:17:08.945Z,5.95
2022-11-17T19:19:40.149Z,5.60
2022-11-17T19:22:08.972Z,5.28
2022-11-17T19:24:40.765Z,5.97
2022-11-17T19:27:09.895Z,5.87
2022-11-17T19:29:41.259Z,5.22
2022-11-17T19:32:09.956Z,5.45
2022-11-17T19:34:41.617Z,5.80
2022-11-17T19:37:10.701Z,5.72
2022-11-17T19:39:39.977Z,5.45
2022-11-17T19:42:09.201Z,5.62
2022-11-17T19:44:38.170Z,5.62
2022-11-17T19:47:06.814Z,5.92
2022-11-17T19:49:35.757Z,5.45
2022-11-17T19:52:08.204Z,5.97
2022-11-17T19:54:37.212Z,6.00
2022-11-17T19:57:06.291Z,5.45
2022-11-17T19:59:35.658Z,5.60
2022-11-17T20:02:04.249Z,5.62
2022-11-17T20:04:33.287Z,5.30
2022-11-17T20:07:01.885Z,5.08
2022-11-17T20:09:32.118Z,5.47
2022-11-17T20:12:01.120Z,5.80
2022-11-17T20:14:33.572Z,5.53
2022-11-17T20:17:03.968Z,4.80
2022-11-17T20:19:33.797Z,5.28
2022-11-17T20:22:03.129Z,5.67
2022-11-17T20:24:32.951Z,5.37
2022-11-17T20:27:02.395Z,5.25
2022-11-17T20:29:32.240Z,4.80
2022-11-17T20:32:01.415Z,5.62
2022-11-17T20:34:30.165Z,5.12
2022-11-17T20:36:59.340Z,4.95
2022-11-17T20:39:28.195Z,5.75
2022-11-17T20:41:57.410Z,5.45
2022-11-17T20:44:26.606Z,4.87
2022-11-17T20:46:56.835Z,5.35
2022-11-17T20:49:27.589Z,5.00
2022-11-17T20:51:57.344Z,5.12
2022-11-17T20:54:26.030Z,5.10
2022-11-17T20:56:55.558Z,4.70
2022-11-17T20:59:24.587Z,4.97
2022-11-17T21:01:53.549Z,4.90
2022-11-17T21:04:24.029Z,4.67
2022-11-17T21:06:53.960Z,4.67
2022-11-17T21:16:37.754Z,5.15
2022-11-17T21:19:09.560Z,4.67
2022-11-17T21:21:39.858Z,4.33
2022-11-17T21:24:09.577Z,4.95
2022-11-17T21:26:38.394Z,4.90
2022-11-17T21:29:07.731Z,5.08
2022-11-17T21:31:38.467Z,4.55
2022-11-17T21:34:16.604Z,4.72
2022-11-17T21:36:45.952Z,3.40
2022-11-17T21:39:16.820Z,4.22
2022-11-17T21:41:46.511Z,4.20
2022-11-17T21:44:15.798Z,4.00
2022-11-17T21:46:44.624Z,3.90
2022-11-17T21:49:14.588Z,4.45
2022-11-17T21:51:45.784Z,4.37
2022-11-17T21:54:14.572Z,4.10
2022-11-17T21:56:45.853Z,4.37
2022-11-17T21:59:16.490Z,3.98
2022-11-17T22:01:45.926Z,4.50
2022-11-17T22:04:15.793Z,4.10
2022-11-17T22:06:44.551Z,4.37
2022-11-17T22:09:16.046Z,3.90
2022-11-17T22:11:45.528Z,3.90
2022-11-17T22:14:19.044Z,4.15
2022-11-17T22:16:54.120Z,3.90
2022-11-17T22:19:26.519Z,4.40
2022-11-17T22:21:55.432Z,4.00
2022-11-17T22:24:25.765Z,3.90
2022-11-17T22:26:55.331Z,3.92
2022-11-17T22:29:25.115Z,3.85
2022-11-17T22:31:53.921Z,4.33
2022-11-17T22:34:23.865Z,3.95
2022-11-17T22:36:53.011Z,3.55
2022-11-17T22:39:22.370Z,4.15
2022-11-17T22:41:52.159Z,4.10
2022-11-17T22:44:22.077Z,4.20
2022-11-17T22:46:50.962Z,4.25
2022-11-17T22:49:20.489Z,4.10
2022-11-17T22:52:06.633Z,4.28
2022-11-17T22:54:36.099Z,4.17
2022-11-17T22:57:05.186Z,3.98
2022-11-17T22:59:35.874Z,3.77
2022-11-17T23:02:05.687Z,4.53
2022-11-17T23:04:35.135Z,4.20
2022-11-17T23:07:04.625Z,4.17
2022-11-17T23:09:35.152Z,3.87
2022-11-17T23:12:04.567Z,3.60
2022-11-17T23:14:33.568Z,3.90
2022-11-17T23:17:02.669Z,3.70
2022-11-17T23:19:31.890Z,3.90
2022-11-17T23:22:01.149Z,4.17
2022-11-17T23:24:30.576Z,4.22
2022-11-17T23:26:59.865Z,4.00
2022-11-17T23:29:29.062Z,4.35
2022-11-17T23:31:59.184Z,3.90
2022-11-17T23:34:28.367Z,3.75
2022-11-17T23:37:21.475Z,3.92
2022-11-17T23:39:52.207Z,3.55
2022-11-17T23:42:21.362Z,3.70
2022-11-17T23:44:51.719Z,4.87
2022-11-17T23:47:20.890Z,3.90
2022-11-17T23:49:50.929Z,3.85
2022-11-17T23:52:19.831Z,4.17
2022-11-17T23:54:48.997Z,3.58
2022-11-17T23:57:19.321Z,3.65
2022-11-17T23:59:48.527Z,4.00
